Terminal Aerodrome Forecast
Issued by NWS

Home | Current Version | Previous Version | Text Only | Print | Product List | Glossary On
Versions: 1 2 3 4 5 6 7 8 9 10 11 12 13 14 15 16 17 18 19 20 21 22 23 24 25 26 27 28
000
FTUS43 KLSX 031500 AAB
TAFUIN
TAF AMD
KUIN 031522Z 0315/0412 17012KT 5SM BR OVC006
      TEMPO 0315/0317 1SM BR OVC004
     FM031700 22015G23KT P6SM OVC010
     FM032100 28012KT P6SM OVC015
     FM040300 34015G22KT P6SM BKN150=

USA.gov is the U.S. government's official web portal to all federal, state and local government web resources and services.